createdAt,value
2023-04-13T00:04:23.504Z,96400.03
2023-04-13T00:06:51.058Z,96392.28
2023-04-13T00:09:21.518Z,96397.88
2023-04-13T00:11:49.274Z,96391.00
2023-04-13T00:14:18.877Z,96397.91
2023-04-13T00:16:47.394Z,96394.19
2023-04-13T00:19:14.915Z,96392.59
2023-04-13T00:21:42.354Z,96394.69
2023-04-13T00:24:09.934Z,96381.13
2023-04-13T00:26:37.433Z,96383.53
2023-04-13T00:29:04.982Z,96389.88
2023-04-13T00:31:32.609Z,96386.06
2023-04-13T00:34:02.188Z,96390.09
2023-04-13T00:36:29.942Z,96393.28
2023-04-13T00:38:57.473Z,96403.66
2023-04-13T00:41:26.456Z,96400.44
2023-04-13T00:43:53.916Z,96404.16
2023-04-13T00:46:22.848Z,96402.31
2023-04-13T00:48:50.663Z,96399.63
2023-04-13T00:51:18.585Z,96397.22
2023-04-13T00:53:46.247Z,96403.38
2023-04-13T00:56:13.857Z,96410.31
2023-04-13T00:58:42.588Z,96407.69
2023-04-13T01:01:10.133Z,96407.69
2023-04-13T01:03:37.820Z,96415.38
2023-04-13T01:06:28.046Z,96404.69
2023-04-13T01:09:09.024Z,96403.66
2023-04-13T01:11:43.796Z,96400.44
2023-04-13T01:14:24.649Z,96405.25
2023-04-13T01:16:58.337Z,96402.84
2023-04-13T01:19:51.824Z,96406.81
2023-04-13T01:22:22.582Z,96399.59
2023-04-13T01:25:14.751Z,96402.53
2023-04-13T01:27:50.821Z,96402.31
2023-04-13T01:30:24.555Z,96409.22
2023-04-13T01:32:56.315Z,96408.69
2023-04-13T01:35:25.756Z,96405.75
2023-04-13T01:37:57.316Z,96399.69
2023-04-13T01:40:27.789Z,96399.69
2023-04-13T01:42:57.654Z,96394.88
2023-04-13T01:45:43.589Z,96399.19
2023-04-13T01:48:38.987Z,96390.13
2023-04-13T01:51:32.432Z,96389.03
2023-04-13T01:54:14.900Z,96389.56
2023-04-13T01:56:45.722Z,96389.22
2023-04-13T01:59:13.769Z,96399.09
2023-04-13T02:01:43.373Z,96406.22
2023-04-13T02:04:11.231Z,96401.16
2023-04-13T02:06:42.425Z,96412.38
2023-04-13T02:09:11.297Z,96410.75
2023-04-13T02:11:39.005Z,96421.88
2023-04-13T02:14:08.057Z,96428.50
2023-04-13T02:16:35.766Z,96427.94
2023-04-13T02:19:03.424Z,96439.88
2023-04-13T02:21:31.325Z,96441.16
2023-04-13T02:23:58.990Z,96447.75
2023-04-13T02:26:27.583Z,96445.63
2023-04-13T02:28:56.705Z,96447.19
2023-04-13T02:31:24.240Z,96453.81
2023-04-13T02:33:51.973Z,96455.66
2023-04-13T02:36:20.319Z,96461.50
2023-04-13T02:38:55.275Z,96453.81
2023-04-13T02:41:31.381Z,96459.34
2023-04-13T02:44:00.199Z,96451.94
2023-04-13T02:46:33.040Z,96448.72
2023-04-13T02:49:12.454Z,96447.41
2023-04-13T02:51:49.424Z,96449.34
2023-04-13T02:54:19.745Z,96455.94
2023-04-13T02:56:49.302Z,96453.03
2023-04-13T02:59:16.844Z,96445.81
2023-04-13T03:01:46.107Z,96456.97
2023-04-13T03:04:15.320Z,96460.19
2023-04-13T03:06:44.424Z,96464.63
2023-04-13T03:09:12.412Z,96460.91
2023-04-13T03:11:47.016Z,96456.59
2023-04-13T03:14:22.757Z,96457.34
2023-04-13T03:16:58.740Z,96451.22
2023-04-13T03:19:36.251Z,96449.63
2023-04-13T03:22:04.832Z,96446.16
2023-04-13T03:24:35.926Z,96454.16
2023-04-13T03:27:08.377Z,96457.84
2023-04-13T03:29:41.344Z,96478.84
2023-04-13T03:32:13.595Z,96476.69
2023-04-13T03:34:46.724Z,96478.00
2023-04-13T03:37:15.091Z,96498.44
2023-04-13T03:39:42.556Z,96508.41
2023-04-13T03:42:14.348Z,96500.16
2023-04-13T03:44:48.193Z,96496.94
2023-04-13T03:47:15.906Z,96496.88
2023-04-13T03:49:43.366Z,96495.81
2023-04-13T03:52:10.905Z,96497.69
2023-04-13T03:54:42.690Z,96499.78
2023-04-13T03:57:10.286Z,96513.63
2023-04-13T03:59:37.934Z,96506.63
2023-04-13T04:02:09.868Z,96517.25
2023-04-13T04:04:41.141Z,96518.06
2023-04-13T04:07:09.254Z,96513.81
2023-04-13T04:09:36.945Z,96510.59
2023-04-13T04:12:05.350Z,96515.34
2023-04-13T04:14:40.827Z,96511.88
2023-04-13T04:17:15.070Z,96510.03
2023-04-13T04:19:43.538Z,96506.56
2023-04-13T04:22:11.013Z,96518.25
2023-04-13T04:24:42.579Z,96510.53
2023-04-13T04:27:10.210Z,96499.59
2023-04-13T04:29:38.311Z,96502.81
2023-04-13T04:32:24.221Z,96514.19
2023-04-13T04:34:53.880Z,96515.47
2023-04-13T04:37:26.233Z,96517.56
2023-04-13T04:40:09.809Z,96524.47
2023-04-13T04:42:39.314Z,96536.72
2023-04-13T04:45:16.810Z,96531.63
2023-04-13T04:47:49.999Z,96534.28
2023-04-13T04:50:22.181Z,96534.78
2023-04-13T04:52:56.375Z,96537.69
2023-04-13T04:55:25.423Z,96531.31
2023-04-13T04:57:53.098Z,96529.16
2023-04-13T05:00:25.492Z,96539.56
2023-04-13T05:03:03.382Z,96550.22
2023-04-13T05:05:31.333Z,96561.31
2023-04-13T05:08:03.693Z,96574.59
2023-04-13T05:10:31.716Z,96562.47
2023-04-13T05:12:59.167Z,96573.56
2023-04-13T05:15:26.992Z,96581.53
2023-04-13T05:17:56.956Z,96580.47
2023-04-13T05:20:28.086Z,96601.41
2023-04-13T05:23:01.620Z,96604.06
2023-04-13T05:25:29.256Z,96603.31
2023-04-13T05:28:01.376Z,96610.41
2023-04-13T05:30:29.120Z,96609.59
2023-04-13T05:32:56.701Z,96614.34
2023-04-13T05:35:26.868Z,96625.13
2023-04-13T05:37:57.255Z,96629.69
2023-04-13T05:40:25.079Z,96626.00
2023-04-13T05:42:52.499Z,96622.88
2023-04-13T05:45:26.018Z,96629.78
2023-04-13T05:48:13.903Z,96640.97
2023-04-13T05:50:43.911Z,96642.50
2023-04-13T05:53:12.851Z,96636.94
2023-04-13T05:55:49.605Z,96644.13
2023-04-13T05:58:19.234Z,96636.88
2023-04-13T06:00:50.107Z,96657.13
2023-04-13T06:03:27.607Z,96658.09
2023-04-13T06:05:56.022Z,96658.28
2023-04-13T06:08:23.513Z,96664.97
2023-04-13T06:10:51.790Z,96660.22
2023-04-13T06:13:19.575Z,96656.50
2023-04-13T06:15:47.119Z,96663.03
2023-04-13T06:18:14.587Z,96660.44
2023-04-13T06:20:42.695Z,96651.91
2023-04-13T06:23:10.274Z,96659.25
2023-04-13T06:25:38.775Z,96660.72
2023-04-13T06:28:07.739Z,96654.81
2023-04-13T06:30:40.001Z,96666.25
2023-04-13T06:33:11.548Z,96661.03
2023-04-13T06:35:41.192Z,96665.75
2023-04-13T06:38:10.344Z,96655.47
2023-04-13T06:40:54.679Z,96647.25
2023-04-13T06:43:29.094Z,96638.72
2023-04-13T06:46:18.333Z,96653.69
2023-04-13T06:48:50.014Z,96651.44
2023-04-13T06:51:21.714Z,96652.47
2023-04-13T06:53:49.312Z,96664.94
2023-04-13T06:56:16.776Z,96663.47
2023-04-13T06:58:46.049Z,96664.53
2023-04-13T07:01:13.568Z,96663.69
2023-04-13T07:03:42.477Z,96671.25
2023-04-13T07:06:10.744Z,96673.22
2023-04-13T07:08:38.995Z,96671.31
2023-04-13T07:11:08.333Z,96666.97
2023-04-13T07:13:38.621Z,96666.78
2023-04-13T07:16:09.371Z,96668.16
2023-04-13T07:18:39.147Z,96676.94
2023-04-13T07:21:07.396Z,96676.34
2023-04-13T07:23:57.366Z,96676.09
2023-04-13T07:26:25.036Z,96680.69
2023-04-13T07:28:53.098Z,96676.50
2023-04-13T07:31:23.546Z,96672.19
2023-04-13T07:33:53.609Z,96679.03
2023-04-13T07:36:28.280Z,96685.50
2023-04-13T07:38:59.647Z,96685.34
2023-04-13T07:41:27.345Z,96693.34
2023-04-13T07:43:59.465Z,96698.75
2023-04-13T07:46:27.563Z,96700.03
2023-04-13T07:48:56.358Z,96710.69
2023-04-13T07:51:28.101Z,96710.53
2023-04-13T07:53:55.783Z,96708.97
2023-04-13T07:56:26.442Z,96709.09
2023-04-13T07:58:54.778Z,96712.00
2023-04-13T08:01:22.312Z,96713.44
2023-04-13T08:03:50.722Z,96717.38
2023-04-13T08:06:23.508Z,96720.72
2023-04-13T08:08:53.500Z,96719.84
2023-04-13T08:11:21.150Z,96708.94
2023-04-13T08:13:53.728Z,96712.41
2023-04-13T08:16:21.589Z,96727.38
2023-04-13T08:18:49.625Z,96728.22
2023-04-13T08:21:19.149Z,96731.22
2023-04-13T08:23:49.275Z,96727.44
2023-04-13T08:26:18.954Z,96738.50
2023-04-13T08:28:49.987Z,96742.94
2023-04-13T08:31:17.769Z,96745.94
2023-04-13T08:33:52.402Z,96751.94
2023-04-13T08:36:19.890Z,96749.66
2023-04-13T08:38:54.185Z,96735.94
2023-04-13T08:41:23.105Z,96733.88
2023-04-13T08:43:53.026Z,96730.97
2023-04-13T08:46:24.209Z,96741.72
2023-04-13T08:48:58.964Z,96746.03
2023-04-13T08:51:35.994Z,96748.41
2023-04-13T08:54:03.827Z,96754.56
2023-04-13T08:56:45.881Z,96758.81
2023-04-13T08:59:21.441Z,96750.31
2023-04-13T09:01:51.134Z,96742.28
2023-04-13T09:04:22.013Z,96743.88
2023-04-13T09:06:55.888Z,96748.06
2023-04-13T09:09:25.758Z,96748.84
2023-04-13T09:11:53.543Z,96743.25
2023-04-13T09:14:22.078Z,96747.50
2023-04-13T09:16:52.191Z,96756.06
2023-04-13T09:19:33.278Z,96757.19
2023-04-13T09:22:15.250Z,96764.72
2023-04-13T09:24:43.051Z,96760.66
2023-04-13T09:27:21.580Z,96760.16
2023-04-13T09:29:53.843Z,96764.19
2023-04-13T09:32:25.750Z,96768.94
2023-04-13T09:35:06.248Z,96769.75
2023-04-13T09:37:35.846Z,96768.56
2023-04-13T09:40:14.284Z,96775.28
2023-04-13T09:42:53.647Z,96774.94
2023-04-13T09:45:21.439Z,96783.53
2023-04-13T09:47:49.467Z,96790.03
2023-04-13T09:50:28.497Z,96783.94
2023-04-13T09:53:03.152Z,96775.22
2023-04-13T09:55:32.979Z,96781.38
2023-04-13T09:58:16.788Z,96776.59
2023-04-13T10:00:46.745Z,96770.22
2023-04-13T10:03:15.772Z,96771.03
2023-04-13T10:05:55.406Z,96766.50
2023-04-13T10:11:00.326Z,96773.16
2023-04-13T10:13:35.693Z,96756.63
2023-04-13T10:16:30.678Z,96764.31
2023-04-13T10:19:02.744Z,96761.00
2023-04-13T10:21:39.250Z,96761.22
2023-04-13T10:24:13.816Z,96765.84
2023-04-13T10:26:44.720Z,96773.91
2023-04-13T10:29:14.972Z,96775.38
2023-04-13T10:31:48.913Z,96764.59
2023-04-13T10:34:29.596Z,96761.38
2023-04-13T10:37:04.077Z,96765.16
2023-04-13T10:39:33.761Z,96770.03
2023-04-13T10:42:06.568Z,96765.81
2023-04-13T10:44:51.910Z,96772.59
2023-04-13T10:47:21.227Z,96767.91
2023-04-13T10:49:50.299Z,96768.38
2023-04-13T10:52:18.251Z,96771.28
2023-04-13T10:54:45.721Z,96765.91
2023-04-13T10:57:13.344Z,96764.38
2023-04-13T11:02:17.574Z,96758.75
2023-04-13T11:04:47.390Z,96762.00
2023-04-13T11:07:21.432Z,96762.88
2023-04-13T11:09:50.805Z,96764.41
2023-04-13T11:12:19.672Z,96767.91
2023-04-13T11:14:48.316Z,96772.06
2023-04-13T11:17:17.741Z,96772.50
2023-04-13T11:19:56.058Z,96765.50
2023-04-13T11:22:25.886Z,96758.00
2023-04-13T11:24:53.599Z,96764.72
2023-04-13T11:27:23.381Z,96768.41
2023-04-13T11:30:05.205Z,96764.28
2023-04-13T11:32:34.590Z,96759.00
2023-04-13T11:35:08.277Z,96766.81
2023-04-13T11:37:40.962Z,96772.81
2023-04-13T11:40:21.579Z,96772.19
2023-04-13T11:43:00.131Z,96768.69
2023-04-13T11:45:29.494Z,96754.84
2023-04-13T11:47:58.514Z,96748.75
2023-04-13T11:50:27.174Z,96749.69
2023-04-13T11:52:58.588Z,96754.75
2023-04-13T11:55:26.778Z,96759.91
2023-04-13T11:57:54.936Z,96758.56
2023-04-13T12:00:26.542Z,96758.53
2023-04-13T12:05:31.380Z,96749.56
2023-04-13T12:08:00.838Z,96747.91
2023-04-13T12:10:40.429Z,96749.53
2023-04-13T12:16:02.315Z,96747.66
2023-04-13T12:18:44.019Z,96749.63
2023-04-13T12:21:20.706Z,96746.38
2023-04-13T12:23:56.374Z,96739.47
2023-04-13T12:29:05.853Z,96749.03
2023-04-13T12:31:36.342Z,96745.91
2023-04-13T12:34:05.466Z,96732.22
2023-04-13T12:36:34.183Z,96740.53
2023-04-13T12:39:02.647Z,96744.00
2023-04-13T12:41:30.188Z,96745.63
2023-04-13T12:43:57.697Z,96744.91
2023-04-13T12:46:26.669Z,96745.94
2023-04-13T12:48:54.381Z,96747.97
2023-04-13T12:51:21.941Z,96748.47
2023-04-13T12:53:49.468Z,96743.50
2023-04-13T12:56:17.021Z,96749.25
2023-04-13T12:58:44.521Z,96755.81
2023-04-13T13:01:14.229Z,96748.28
2023-04-13T13:03:42.188Z,96757.69
2023-04-13T13:06:09.791Z,96761.91
2023-04-13T13:08:39.885Z,96759.44
2023-04-13T13:11:11.346Z,96755.78
2023-04-13T13:13:38.939Z,96758.63
2023-04-13T13:16:06.559Z,96756.31
2023-04-13T13:18:49.010Z,96752.13
2023-04-13T13:21:18.847Z,96759.53
2023-04-13T13:23:46.418Z,96764.50
2023-04-13T13:28:45.760Z,96757.47
2023-04-13T13:31:13.440Z,96761.59
2023-04-13T13:33:41.126Z,96752.97
2023-04-13T13:36:09.430Z,96755.94
2023-04-13T13:38:37.060Z,96750.34
2023-04-13T13:41:04.634Z,96748.94
2023-04-13T13:43:32.791Z,96751.13
2023-04-13T13:46:00.316Z,96749.94
2023-04-13T13:48:28.597Z,96747.91
2023-04-13T13:51:19.065Z,96761.22
2023-04-13T13:53:46.858Z,96752.44
2023-04-13T13:56:14.304Z,96755.06
2023-04-13T13:58:41.774Z,96749.03
2023-04-13T14:01:09.325Z,96753.28
2023-04-13T14:03:37.534Z,96752.31
2023-04-13T14:06:05.317Z,96749.19
2023-04-13T14:08:32.875Z,96759.78
2023-04-13T14:11:01.067Z,96753.13
2023-04-13T14:13:29.272Z,96758.66
2023-04-13T14:15:56.964Z,96755.69
2023-04-13T14:18:24.503Z,96748.94
2023-04-13T14:20:52.317Z,96752.47
2023-04-13T14:23:19.801Z,96751.97
2023-04-13T14:25:47.357Z,96757.09
2023-04-13T14:28:14.820Z,96757.66
2023-04-13T14:30:42.251Z,96751.78
2023-04-13T14:33:09.822Z,96745.19
2023-04-13T14:35:38.964Z,96736.50
2023-04-13T14:38:08.603Z,96744.97
2023-04-13T14:40:36.298Z,96748.97
2023-04-13T14:43:03.865Z,96756.69
2023-04-13T14:45:31.568Z,96758.22
2023-04-13T14:47:59.119Z,96759.56
2023-04-13T14:50:26.642Z,96759.50
2023-04-13T14:52:54.135Z,96769.19
2023-04-13T14:55:21.645Z,96772.50
2023-04-13T14:57:49.281Z,96776.81
2023-04-13T15:00:26.651Z,96781.03
2023-04-13T15:02:55.445Z,96781.78
2023-04-13T15:05:23.336Z,96780.72
2023-04-13T15:07:51.093Z,96795.56
2023-04-13T15:10:19.360Z,96790.81
2023-04-13T15:12:48.351Z,96790.75
2023-04-13T15:15:16.058Z,96791.06
2023-04-13T15:17:43.682Z,96794.66
2023-04-13T15:20:12.201Z,96799.06
2023-04-13T15:22:39.768Z,96797.50
2023-04-13T15:25:07.520Z,96797.16
2023-04-13T15:27:35.126Z,96810.28
2023-04-13T15:30:03.760Z,96812.44
2023-04-13T15:32:34.410Z,96814.03
2023-04-13T15:35:02.455Z,96805.94
2023-04-13T15:37:29.856Z,96813.72
2023-04-13T15:39:57.423Z,96818.56
2023-04-13T15:42:26.233Z,96823.94
2023-04-13T15:44:55.399Z,96825.28
2023-04-13T15:47:23.048Z,96826.63
2023-04-13T15:49:50.523Z,96819.66
2023-04-13T15:52:17.984Z,96833.38
2023-04-13T15:54:45.471Z,96824.78
2023-04-13T15:57:12.887Z,96829.59
2023-04-13T15:59:40.514Z,96830.69
2023-04-13T16:02:08.161Z,96828.81
2023-04-13T16:04:35.957Z,96828.25
2023-04-13T16:07:12.959Z,96832.00
2023-04-13T16:09:44.456Z,96829.59
2023-04-13T16:12:12.295Z,96828.78
2023-04-13T16:14:42.046Z,96827.19
2023-04-13T16:17:10.497Z,96826.13
2023-04-13T16:19:38.387Z,96829.34
2023-04-13T16:22:06.475Z,96824.78
2023-04-13T16:24:33.905Z,96830.16
2023-04-13T16:27:05.047Z,96825.34
2023-04-13T16:29:32.807Z,96826.13
2023-04-13T16:32:00.310Z,96822.56
2023-04-13T16:34:28.171Z,96829.00
2023-04-13T16:36:56.282Z,96823.66
2023-04-13T16:39:23.971Z,96829.00
2023-04-13T16:41:51.477Z,96831.38
2023-04-13T16:44:19.268Z,96830.59
2023-04-13T16:46:46.853Z,96834.44
2023-04-13T16:49:14.342Z,96834.72
2023-04-13T16:51:41.775Z,96837.06
2023-04-13T16:54:13.934Z,96837.34
2023-04-13T16:56:41.626Z,96839.44
2023-04-13T16:59:09.070Z,96841.56
2023-04-13T17:01:39.187Z,96839.13
2023-04-13T17:04:07.682Z,96838.56
2023-04-13T17:06:37.475Z,96835.34
2023-04-13T17:09:05.887Z,96841.00
2023-04-13T17:11:33.330Z,96837.50
2023-04-13T17:14:01.118Z,96838.25
2023-04-13T17:16:29.614Z,96842.00
2023-04-13T17:18:57.327Z,96838.78
2023-04-13T17:21:24.861Z,96825.38
2023-04-13T17:23:52.340Z,96821.03
2023-04-13T17:26:19.710Z,96822.47
2023-04-13T17:28:47.276Z,96818.91
2023-04-13T17:31:14.719Z,96818.03
2023-04-13T17:33:42.384Z,96815.53
2023-04-13T17:36:09.904Z,96815.56
2023-04-13T17:38:37.389Z,96819.91
2023-04-13T17:41:06.771Z,96816.22
2023-04-13T17:43:34.357Z,96814.75
2023-04-13T17:46:02.898Z,96816.84
2023-04-13T17:48:30.510Z,96816.75
2023-04-13T17:50:57.911Z,96821.19
2023-04-13T17:53:26.303Z,96826.03
2023-04-13T17:55:53.776Z,96834.91
2023-04-13T17:58:21.726Z,96855.44
2023-04-13T18:00:49.240Z,96861.28
2023-04-13T18:03:17.153Z,96873.81
2023-04-13T18:05:44.883Z,96894.06
2023-04-13T18:08:12.360Z,96909.44
2023-04-13T18:10:39.766Z,96915.16
2023-04-13T18:13:07.265Z,96938.88
2023-04-13T18:15:34.716Z,96963.13
2023-04-13T18:18:02.256Z,96965.28
2023-04-13T18:20:30.225Z,96964.22
2023-04-13T18:22:57.704Z,96971.91
2023-04-13T18:25:25.437Z,96978.59
2023-04-13T18:27:52.915Z,96986.59
2023-04-13T18:30:21.197Z,96986.84
2023-04-13T18:32:51.650Z,97001.22
2023-04-13T18:35:19.303Z,96998.56
2023-04-13T18:37:46.957Z,97004.13
2023-04-13T18:40:14.411Z,97000.13
2023-04-13T18:42:42.116Z,97007.34
2023-04-13T18:45:10.050Z,97005.50
2023-04-13T18:47:37.880Z,97003.88
2023-04-13T18:50:06.253Z,96998.00
2023-04-13T18:52:34.288Z,97003.50
2023-04-13T18:55:01.835Z,97007.72
2023-04-13T18:57:29.337Z,97002.88
2023-04-13T18:59:57.488Z,96998.78
2023-04-13T19:02:25.155Z,97000.91
2023-04-13T19:04:52.919Z,96993.53
2023-04-13T19:07:20.419Z,96986.25
2023-04-13T19:09:47.904Z,96986.13
2023-04-13T19:12:15.555Z,96992.75
2023-04-13T19:14:43.016Z,96984.38
2023-04-13T19:17:10.401Z,96995.44
2023-04-13T19:19:37.976Z,96971.63
2023-04-13T19:22:05.433Z,96974.47
2023-04-13T19:24:33.201Z,96974.56
2023-04-13T19:27:00.696Z,96973.53
2023-04-13T19:29:30.386Z,96968.13
2023-04-13T19:31:58.551Z,96967.22
2023-04-13T19:34:26.291Z,96974.41
2023-04-13T19:36:53.823Z,96977.22
2023-04-13T19:39:21.332Z,96968.75
2023-04-13T19:41:48.812Z,96977.63
2023-04-13T19:44:17.018Z,96970.56
2023-04-13T19:46:44.645Z,96973.44
2023-04-13T19:49:13.644Z,96960.72
2023-04-13T19:51:41.288Z,96959.44
2023-04-13T19:54:08.775Z,96952.25
2023-04-13T19:56:36.586Z,96954.56
2023-04-13T19:59:05.404Z,96949.53
2023-04-13T20:01:33.886Z,96954.81
2023-04-13T20:04:04.427Z,96954.88
2023-04-13T20:06:36.097Z,96954.25
2023-04-13T20:09:14.454Z,96963.78
2023-04-13T20:11:42.117Z,96967.47
2023-04-13T20:14:11.632Z,96972.50
2023-04-13T20:16:39.295Z,96965.56
2023-04-13T20:19:07.084Z,96970.19
2023-04-13T20:21:35.002Z,96978.28
2023-04-13T20:24:03.269Z,96970.88
2023-04-13T20:26:31.706Z,96978.75
2023-04-13T20:29:01.462Z,96974.16
2023-04-13T20:31:33.160Z,96964.91
2023-04-13T20:34:03.248Z,96951.03
2023-04-13T20:36:31.468Z,96944.09
2023-04-13T20:39:01.746Z,96940.88
2023-04-13T20:41:32.371Z,96937.72
2023-04-13T20:44:00.326Z,96933.47
2023-04-13T20:46:41.927Z,96928.16
2023-04-13T20:49:11.971Z,96927.34
2023-04-13T20:51:39.885Z,96920.09
2023-04-13T20:54:07.334Z,96915.81
2023-04-13T20:56:34.897Z,96913.38
2023-04-13T20:59:02.638Z,96913.81
2023-04-13T21:01:30.661Z,96920.97
2023-04-13T21:03:58.483Z,96916.94
2023-04-13T21:06:29.153Z,96913.72
2023-04-13T21:08:59.108Z,96921.13
2023-04-13T21:11:27.013Z,96927.19
2023-04-13T21:13:54.806Z,96922.56
2023-04-13T21:16:22.431Z,96932.97
2023-04-13T21:18:49.819Z,96925.38
2023-04-13T21:21:17.521Z,96920.31
2023-04-13T21:23:44.935Z,96921.50
2023-04-13T21:26:12.414Z,96929.25
2023-04-13T21:28:39.900Z,96929.47
2023-04-13T21:31:07.396Z,96936.06
2023-04-13T21:33:34.802Z,96952.50
2023-04-13T21:38:40.968Z,96949.50
2023-04-13T21:41:19.351Z,96949.75
2023-04-13T21:43:47.520Z,96951.59
2023-04-13T21:46:16.025Z,96954.25
2023-04-13T21:48:43.586Z,96955.88
2023-04-13T21:51:11.182Z,96958.63
2023-04-13T21:53:39.071Z,96948.47
2023-04-13T21:56:06.788Z,96947.34
2023-04-13T21:58:39.435Z,96935.44
2023-04-13T22:01:07.510Z,96929.97
2023-04-13T22:03:40.172Z,96929.38
2023-04-13T22:06:09.820Z,96929.38
2023-04-13T22:08:37.737Z,96916.81
2023-04-13T22:11:06.555Z,96912.69
2023-04-13T22:13:34.272Z,96907.63
2023-04-13T22:16:01.948Z,96912.16
2023-04-13T22:18:29.503Z,96902.06
2023-04-13T22:20:59.609Z,96897.13
2023-04-13T22:23:27.280Z,96897.13
2023-04-13T22:25:58.892Z,96894.59
2023-04-13T22:28:26.898Z,96883.41
2023-04-13T22:30:54.372Z,96887.09
2023-04-13T22:33:21.938Z,96894.09
2023-04-13T22:35:52.412Z,96888.53
2023-04-13T22:38:19.926Z,96876.28
2023-04-13T22:40:47.431Z,96883.34
2023-04-13T22:43:14.853Z,96889.72
2023-04-13T22:45:42.391Z,96888.66
2023-04-13T22:48:09.872Z,96899.28
2023-04-13T22:50:40.900Z,96912.56
2023-04-13T22:53:08.391Z,96915.00
2023-04-13T22:55:35.805Z,96920.31
2023-04-13T22:58:03.271Z,96916.59
2023-04-13T23:00:30.768Z,96921.91
2023-04-13T23:02:58.498Z,96927.81
2023-04-13T23:05:26.475Z,96922.50
2023-04-13T23:07:54.001Z,96923.88
2023-04-13T23:10:21.726Z,96929.53
2023-04-13T23:12:49.288Z,96940.81
2023-04-13T23:15:16.773Z,96932.66
2023-04-13T23:17:44.548Z,96935.66
2023-04-13T23:20:12.104Z,96941.69
2023-04-13T23:22:39.642Z,96938.94
2023-04-13T23:25:07.643Z,96946.66
2023-04-13T23:27:35.160Z,96949.09
2023-04-13T23:30:03.601Z,96942.72
2023-04-13T23:32:31.355Z,96943.19
2023-04-13T23:35:48.668Z,96933.75
2023-04-13T23:38:16.369Z,96936.41
2023-04-13T23:40:44.787Z,96941.94
2023-04-13T23:43:12.256Z,96930.88
2023-04-13T23:45:39.696Z,96932.72
2023-04-13T23:48:07.505Z,96926.81
2023-04-13T23:50:34.953Z,96930.31
2023-04-13T23:53:02.635Z,96933.00
2023-04-13T23:55:30.107Z,96915.31
2023-04-13T23:57:57.661Z,96916.22
